sensor_id;sensor_type;location;lat;lon;timestamp;P1;durP1;ratioP1;P2;durP2;ratioP2
23561;SDS011;11959;49.418;8.728;2023-01-24T00:00:28;11.93;;;6.57;;
23561;SDS011;11959;49.418;8.728;2023-01-24T00:02:53;10.45;;;6.45;;
23561;SDS011;11959;49.418;8.728;2023-01-24T00:05:20;10.68;;;6.45;;
23561;SDS011;11959;49.418;8.728;2023-01-24T00:07:46;11.77;;;7.55;;
23561;SDS011;11959;49.418;8.728;2023-01-24T00:10:12;10.57;;;6.55;;
23561;SDS011;11959;49.418;8.728;2023-01-24T00:12:38;9.68;;;6.30;;
23561;SDS011;11959;49.418;8.728;2023-01-24T00:15:04;9.80;;;6.45;;
23561;SDS011;11959;49.418;8.728;2023-01-24T00:17:30;9.43;;;6.10;;
23561;SDS011;11959;49.418;8.728;2023-01-24T00:19:56;9.57;;;6.10;;
23561;SDS011;11959;49.418;8.728;2023-01-24T00:22:21;10.93;;;6.90;;
23561;SDS011;11959;49.418;8.728;2023-01-24T00:24:47;10.73;;;6.93;;
23561;SDS011;11959;49.418;8.728;2023-01-24T00:27:13;10.63;;;6.68;;
23561;SDS011;11959;49.418;8.728;2023-01-24T00:29:40;9.02;;;6.05;;
23561;SDS011;11959;49.418;8.728;2023-01-24T00:32:06;11.88;;;6.18;;
23561;SDS011;11959;49.418;8.728;2023-01-24T00:34:32;9.63;;;6.50;;
23561;SDS011;11959;49.418;8.728;2023-01-24T00:36:57;11.30;;;6.93;;
23561;SDS011;11959;49.418;8.728;2023-01-24T00:39:23;9.68;;;6.15;;
23561;SDS011;11959;49.418;8.728;2023-01-24T00:41:48;9.93;;;6.57;;
23561;SDS011;11959;49.418;8.728;2023-01-24T00:44:14;11.50;;;6.60;;
23561;SDS011;11959;49.418;8.728;2023-01-24T00:46:40;9.65;;;6.03;;
23561;SDS011;11959;49.418;8.728;2023-01-24T00:49:06;11.75;;;6.40;;
23561;SDS011;11959;49.418;8.728;2023-01-24T00:51:32;10.98;;;7.13;;
23561;SDS011;11959;49.418;8.728;2023-01-24T00:53:58;10.70;;;6.57;;
23561;SDS011;11959;49.418;8.728;2023-01-24T00:56:24;9.57;;;6.30;;
23561;SDS011;11959;49.418;8.728;2023-01-24T00:58:50;10.57;;;7.00;;
23561;SDS011;11959;49.418;8.728;2023-01-24T01:01:15;10.40;;;6.85;;
23561;SDS011;11959;49.418;8.728;2023-01-24T01:03:41;11.13;;;6.72;;
23561;SDS011;11959;49.418;8.728;2023-01-24T01:06:09;10.50;;;6.45;;
23561;SDS011;11959;49.418;8.728;2023-01-24T01:08:37;9.93;;;6.28;;
23561;SDS011;11959;49.418;8.728;2023-01-24T01:11:03;10.20;;;6.88;;
23561;SDS011;11959;49.418;8.728;2023-01-24T01:13:29;12.60;;;6.78;;
23561;SDS011;11959;49.418;8.728;2023-01-24T01:16:02;13.13;;;7.30;;
23561;SDS011;11959;49.418;8.728;2023-01-24T01:18:32;10.07;;;6.13;;
23561;SDS011;11959;49.418;8.728;2023-01-24T01:20:58;10.63;;;6.78;;
23561;SDS011;11959;49.418;8.728;2023-01-24T01:23:24;10.90;;;6.78;;
23561;SDS011;11959;49.418;8.728;2023-01-24T01:25:49;9.95;;;6.43;;
23561;SDS011;11959;49.418;8.728;2023-01-24T01:28:15;11.75;;;6.60;;
23561;SDS011;11959;49.418;8.728;2023-01-24T01:30:40;11.15;;;6.63;;
23561;SDS011;11959;49.418;8.728;2023-01-24T01:33:06;10.80;;;7.22;;
23561;SDS011;11959;49.418;8.728;2023-01-24T01:35:32;10.15;;;6.60;;
23561;SDS011;11959;49.418;8.728;2023-01-24T01:37:57;11.23;;;6.47;;
23561;SDS011;11959;49.418;8.728;2023-01-24T01:40:23;9.85;;;6.22;;
23561;SDS011;11959;49.418;8.728;2023-01-24T01:42:50;9.75;;;6.13;;
23561;SDS011;11959;49.418;8.728;2023-01-24T01:51:39;12.45;;;7.10;;
23561;SDS011;11959;49.418;8.728;2023-01-24T01:54:04;11.18;;;7.18;;
23561;SDS011;11959;49.418;8.728;2023-01-24T01:56:41;10.55;;;6.20;;
23561;SDS011;11959;49.418;8.728;2023-01-24T01:59:16;10.13;;;6.43;;
23561;SDS011;11959;49.418;8.728;2023-01-24T02:01:47;10.75;;;6.93;;
23561;SDS011;11959;49.418;8.728;2023-01-24T02:04:17;10.07;;;6.65;;
23561;SDS011;11959;49.418;8.728;2023-01-24T02:07:00;10.70;;;6.82;;
23561;SDS011;11959;49.418;8.728;2023-01-24T02:09:28;10.90;;;6.38;;
23561;SDS011;11959;49.418;8.728;2023-01-24T02:12:00;11.80;;;6.90;;
23561;SDS011;11959;49.418;8.728;2023-01-24T02:14:29;11.30;;;6.75;;
23561;SDS011;11959;49.418;8.728;2023-01-24T02:17:16;11.32;;;6.70;;
23561;SDS011;11959;49.418;8.728;2023-01-24T02:28:26;10.90;;;6.65;;
23561;SDS011;11959;49.418;8.728;2023-01-24T02:30:52;10.48;;;6.75;;
23561;SDS011;11959;49.418;8.728;2023-01-24T02:33:21;11.15;;;6.82;;
23561;SDS011;11959;49.418;8.728;2023-01-24T02:35:47;12.68;;;7.35;;
23561;SDS011;11959;49.418;8.728;2023-01-24T02:38:23;10.73;;;6.70;;
23561;SDS011;11959;49.418;8.728;2023-01-24T02:40:53;12.30;;;6.78;;
23561;SDS011;11959;49.418;8.728;2023-01-24T02:43:22;10.93;;;6.70;;
23561;SDS011;11959;49.418;8.728;2023-01-24T02:45:50;12.00;;;6.90;;
23561;SDS011;11959;49.418;8.728;2023-01-24T02:48:16;12.43;;;6.93;;
23561;SDS011;11959;49.418;8.728;2023-01-24T02:50:43;11.30;;;6.72;;
23561;SDS011;11959;49.418;8.728;2023-01-24T02:53:27;10.93;;;6.68;;
23561;SDS011;11959;49.418;8.728;2023-01-24T02:55:56;10.95;;;6.97;;
23561;SDS011;11959;49.418;8.728;2023-01-24T02:58:41;12.60;;;7.38;;
23561;SDS011;11959;49.418;8.728;2023-01-24T03:01:06;10.85;;;6.50;;
23561;SDS011;11959;49.418;8.728;2023-01-24T03:03:32;13.48;;;7.43;;
23561;SDS011;11959;49.418;8.728;2023-01-24T03:05:58;12.88;;;7.40;;
23561;SDS011;11959;49.418;8.728;2023-01-24T03:08:27;9.52;;;6.53;;
23561;SDS011;11959;49.418;8.728;2023-01-24T03:10:54;11.27;;;7.03;;
23561;SDS011;11959;49.418;8.728;2023-01-24T03:13:21;11.60;;;6.45;;
23561;SDS011;11959;49.418;8.728;2023-01-24T03:16:05;11.43;;;6.80;;
23561;SDS011;11959;49.418;8.728;2023-01-24T03:18:50;11.35;;;6.50;;
23561;SDS011;11959;49.418;8.728;2023-01-24T03:21:35;10.13;;;6.30;;
23561;SDS011;11959;49.418;8.728;2023-01-24T03:24:20;9.85;;;6.15;;
23561;SDS011;11959;49.418;8.728;2023-01-24T03:27:04;11.32;;;6.90;;
23561;SDS011;11959;49.418;8.728;2023-01-24T03:29:49;11.30;;;6.50;;
23561;SDS011;11959;49.418;8.728;2023-01-24T03:32:33;10.05;;;6.38;;
23561;SDS011;11959;49.418;8.728;2023-01-24T03:35:18;10.38;;;6.63;;
23561;SDS011;11959;49.418;8.728;2023-01-24T03:37:43;11.27;;;6.60;;
23561;SDS011;11959;49.418;8.728;2023-01-24T03:40:28;12.13;;;6.78;;
23561;SDS011;11959;49.418;8.728;2023-01-24T03:42:53;10.75;;;6.50;;
23561;SDS011;11959;49.418;8.728;2023-01-24T03:45:23;10.95;;;6.72;;
23561;SDS011;11959;49.418;8.728;2023-01-24T03:47:55;10.52;;;6.95;;
23561;SDS011;11959;49.418;8.728;2023-01-24T03:50:26;12.13;;;6.88;;
23561;SDS011;11959;49.418;8.728;2023-01-24T03:53:19;10.65;;;6.30;;
23561;SDS011;11959;49.418;8.728;2023-01-24T03:55:46;11.60;;;6.57;;
23561;SDS011;11959;49.418;8.728;2023-01-24T03:58:19;11.93;;;6.65;;
23561;SDS011;11959;49.418;8.728;2023-01-24T04:00:46;12.65;;;7.05;;
23561;SDS011;11959;49.418;8.728;2023-01-24T04:03:12;11.30;;;6.38;;
23561;SDS011;11959;49.418;8.728;2023-01-24T04:05:37;9.82;;;6.30;;
23561;SDS011;11959;49.418;8.728;2023-01-24T04:08:03;9.98;;;6.10;;
23561;SDS011;11959;49.418;8.728;2023-01-24T04:10:29;10.75;;;6.35;;
23561;SDS011;11959;49.418;8.728;2023-01-24T04:12:55;11.18;;;6.30;;
23561;SDS011;11959;49.418;8.728;2023-01-24T04:15:22;12.38;;;6.40;;
23561;SDS011;11959;49.418;8.728;2023-01-24T04:17:49;9.63;;;6.10;;
23561;SDS011;11959;49.418;8.728;2023-01-24T04:20:15;10.57;;;6.35;;
23561;SDS011;11959;49.418;8.728;2023-01-24T04:22:42;11.07;;;6.45;;
23561;SDS011;11959;49.418;8.728;2023-01-24T04:25:08;11.40;;;7.25;;
23561;SDS011;11959;49.418;8.728;2023-01-24T04:27:35;10.52;;;6.68;;
23561;SDS011;11959;49.418;8.728;2023-01-24T04:30:02;11.73;;;6.30;;
23561;SDS011;11959;49.418;8.728;2023-01-24T04:32:29;12.95;;;6.93;;
23561;SDS011;11959;49.418;8.728;2023-01-24T04:34:54;11.65;;;7.43;;
23561;SDS011;11959;49.418;8.728;2023-01-24T04:37:20;10.60;;;6.63;;
23561;SDS011;11959;49.418;8.728;2023-01-24T04:39:45;10.52;;;6.65;;
23561;SDS011;11959;49.418;8.728;2023-01-24T04:42:11;11.73;;;7.10;;
23561;SDS011;11959;49.418;8.728;2023-01-24T04:44:37;13.25;;;6.57;;
23561;SDS011;11959;49.418;8.728;2023-01-24T04:47:02;10.18;;;6.38;;
23561;SDS011;11959;49.418;8.728;2023-01-24T04:49:28;10.82;;;6.57;;
23561;SDS011;11959;49.418;8.728;2023-01-24T04:51:54;11.55;;;5.97;;
23561;SDS011;11959;49.418;8.728;2023-01-24T04:54:19;10.55;;;6.38;;
23561;SDS011;11959;49.418;8.728;2023-01-24T04:56:45;12.38;;;6.72;;
23561;SDS011;11959;49.418;8.728;2023-01-24T04:59:11;11.68;;;6.85;;
23561;SDS011;11959;49.418;8.728;2023-01-24T05:01:38;10.82;;;6.30;;
23561;SDS011;11959;49.418;8.728;2023-01-24T05:04:04;11.52;;;6.93;;
23561;SDS011;11959;49.418;8.728;2023-01-24T05:06:30;12.95;;;7.20;;
23561;SDS011;11959;49.418;8.728;2023-01-24T05:08:56;12.43;;;6.72;;
23561;SDS011;11959;49.418;8.728;2023-01-24T05:11:22;9.80;;;5.90;;
23561;SDS011;11959;49.418;8.728;2023-01-24T05:13:48;12.40;;;7.22;;
23561;SDS011;11959;49.418;8.728;2023-01-24T05:16:14;10.10;;;5.90;;
23561;SDS011;11959;49.418;8.728;2023-01-24T05:18:40;10.15;;;6.15;;
23561;SDS011;11959;49.418;8.728;2023-01-24T05:21:06;10.50;;;6.10;;
23561;SDS011;11959;49.418;8.728;2023-01-24T05:23:33;11.25;;;6.47;;
23561;SDS011;11959;49.418;8.728;2023-01-24T05:25:59;12.55;;;7.00;;
23561;SDS011;11959;49.418;8.728;2023-01-24T05:28:26;12.57;;;6.47;;
23561;SDS011;11959;49.418;8.728;2023-01-24T05:30:51;12.23;;;6.50;;
23561;SDS011;11959;49.418;8.728;2023-01-24T05:33:17;11.02;;;6.43;;
23561;SDS011;11959;49.418;8.728;2023-01-24T05:35:43;10.23;;;6.45;;
23561;SDS011;11959;49.418;8.728;2023-01-24T05:38:10;11.13;;;6.75;;
23561;SDS011;11959;49.418;8.728;2023-01-24T05:40:36;11.88;;;7.38;;
23561;SDS011;11959;49.418;8.728;2023-01-24T05:43:02;9.98;;;6.28;;
23561;SDS011;11959;49.418;8.728;2023-01-24T05:45:27;13.27;;;7.72;;
23561;SDS011;11959;49.418;8.728;2023-01-24T05:47:54;13.07;;;7.18;;
23561;SDS011;11959;49.418;8.728;2023-01-24T05:50:20;10.32;;;7.03;;
23561;SDS011;11959;49.418;8.728;2023-01-24T05:52:46;12.18;;;6.82;;
23561;SDS011;11959;49.418;8.728;2023-01-24T05:55:11;11.07;;;6.82;;
23561;SDS011;11959;49.418;8.728;2023-01-24T05:57:37;13.02;;;7.25;;
23561;SDS011;11959;49.418;8.728;2023-01-24T06:00:03;12.88;;;7.70;;
23561;SDS011;11959;49.418;8.728;2023-01-24T06:02:29;13.20;;;7.57;;
23561;SDS011;11959;49.418;8.728;2023-01-24T06:04:55;12.68;;;7.10;;
23561;SDS011;11959;49.418;8.728;2023-01-24T06:07:20;12.90;;;7.60;;
23561;SDS011;11959;49.418;8.728;2023-01-24T06:09:46;12.45;;;7.40;;
23561;SDS011;11959;49.418;8.728;2023-01-24T06:12:12;14.70;;;7.75;;
23561;SDS011;11959;49.418;8.728;2023-01-24T06:14:37;13.38;;;7.30;;
23561;SDS011;11959;49.418;8.728;2023-01-24T06:17:03;13.80;;;7.78;;
23561;SDS011;11959;49.418;8.728;2023-01-24T06:19:29;13.82;;;8.23;;
23561;SDS011;11959;49.418;8.728;2023-01-24T06:21:57;12.57;;;7.70;;
23561;SDS011;11959;49.418;8.728;2023-01-24T06:24:49;13.02;;;7.25;;
23561;SDS011;11959;49.418;8.728;2023-01-24T06:27:15;13.70;;;7.82;;
23561;SDS011;11959;49.418;8.728;2023-01-24T06:29:41;12.90;;;7.57;;
23561;SDS011;11959;49.418;8.728;2023-01-24T06:32:23;12.73;;;7.35;;
23561;SDS011;11959;49.418;8.728;2023-01-24T06:37:45;14.27;;;8.32;;
23561;SDS011;11959;49.418;8.728;2023-01-24T06:40:13;12.80;;;7.95;;
23561;SDS011;11959;49.418;8.728;2023-01-24T06:42:40;14.50;;;8.38;;
23561;SDS011;11959;49.418;8.728;2023-01-24T06:45:06;12.57;;;7.75;;
23561;SDS011;11959;49.418;8.728;2023-01-24T06:47:33;15.27;;;8.27;;
23561;SDS011;11959;49.418;8.728;2023-01-24T06:49:58;13.55;;;8.70;;
23561;SDS011;11959;49.418;8.728;2023-01-24T06:52:24;13.65;;;7.90;;
23561;SDS011;11959;49.418;8.728;2023-01-24T06:54:50;13.93;;;8.05;;
23561;SDS011;11959;49.418;8.728;2023-01-24T06:57:15;14.80;;;8.68;;
23561;SDS011;11959;49.418;8.728;2023-01-24T06:59:41;13.05;;;7.95;;
23561;SDS011;11959;49.418;8.728;2023-01-24T07:02:09;12.65;;;7.35;;
23561;SDS011;11959;49.418;8.728;2023-01-24T07:04:35;17.90;;;8.27;;
23561;SDS011;11959;49.418;8.728;2023-01-24T07:07:01;12.60;;;8.20;;
23561;SDS011;11959;49.418;8.728;2023-01-24T07:09:27;16.08;;;8.48;;
23561;SDS011;11959;49.418;8.728;2023-01-24T07:11:53;14.93;;;8.30;;
23561;SDS011;11959;49.418;8.728;2023-01-24T07:14:22;14.73;;;8.95;;
23561;SDS011;11959;49.418;8.728;2023-01-24T07:16:48;13.23;;;8.15;;
23561;SDS011;11959;49.418;8.728;2023-01-24T07:19:15;14.23;;;8.38;;
23561;SDS011;11959;49.418;8.728;2023-01-24T07:21:43;13.23;;;8.07;;
23561;SDS011;11959;49.418;8.728;2023-01-24T07:24:09;15.85;;;9.20;;
23561;SDS011;11959;49.418;8.728;2023-01-24T07:26:38;15.10;;;8.18;;
23561;SDS011;11959;49.418;8.728;2023-01-24T07:29:04;15.05;;;8.75;;
23561;SDS011;11959;49.418;8.728;2023-01-24T07:31:30;14.15;;;8.63;;
23561;SDS011;11959;49.418;8.728;2023-01-24T07:33:56;14.60;;;8.02;;
23561;SDS011;11959;49.418;8.728;2023-01-24T07:36:21;15.65;;;8.65;;
23561;SDS011;11959;49.418;8.728;2023-01-24T07:38:47;14.93;;;7.90;;
23561;SDS011;11959;49.418;8.728;2023-01-24T07:41:13;14.05;;;7.72;;
23561;SDS011;11959;49.418;8.728;2023-01-24T07:43:39;13.50;;;7.85;;
23561;SDS011;11959;49.418;8.728;2023-01-24T07:46:05;15.80;;;8.48;;
23561;SDS011;11959;49.418;8.728;2023-01-24T07:48:30;15.02;;;8.50;;
23561;SDS011;11959;49.418;8.728;2023-01-24T07:50:59;13.88;;;8.25;;
23561;SDS011;11959;49.418;8.728;2023-01-24T07:53:25;15.80;;;9.05;;
23561;SDS011;11959;49.418;8.728;2023-01-24T07:55:51;14.82;;;8.68;;
23561;SDS011;11959;49.418;8.728;2023-01-24T07:58:16;15.50;;;9.20;;
23561;SDS011;11959;49.418;8.728;2023-01-24T08:00:42;15.68;;;8.65;;
23561;SDS011;11959;49.418;8.728;2023-01-24T08:03:09;14.70;;;8.63;;
23561;SDS011;11959;49.418;8.728;2023-01-24T08:05:38;14.05;;;8.45;;
23561;SDS011;11959;49.418;8.728;2023-01-24T08:08:04;14.95;;;8.60;;
23561;SDS011;11959;49.418;8.728;2023-01-24T08:10:30;13.73;;;8.48;;
23561;SDS011;11959;49.418;8.728;2023-01-24T08:12:56;13.70;;;8.45;;
23561;SDS011;11959;49.418;8.728;2023-01-24T08:15:21;13.75;;;8.43;;
23561;SDS011;11959;49.418;8.728;2023-01-24T08:17:47;14.15;;;8.15;;
23561;SDS011;11959;49.418;8.728;2023-01-24T08:20:13;13.85;;;8.48;;
23561;SDS011;11959;49.418;8.728;2023-01-24T08:22:39;14.07;;;8.60;;
23561;SDS011;11959;49.418;8.728;2023-01-24T08:25:06;16.17;;;8.68;;
23561;SDS011;11959;49.418;8.728;2023-01-24T08:27:32;14.98;;;8.88;;
23561;SDS011;11959;49.418;8.728;2023-01-24T08:29:58;14.18;;;8.32;;
23561;SDS011;11959;49.418;8.728;2023-01-24T08:32:24;16.17;;;9.05;;
23561;SDS011;11959;49.418;8.728;2023-01-24T08:34:49;16.17;;;9.10;;
23561;SDS011;11959;49.418;8.728;2023-01-24T08:37:15;13.93;;;8.55;;
23561;SDS011;11959;49.418;8.728;2023-01-24T08:39:41;14.43;;;8.30;;
23561;SDS011;11959;49.418;8.728;2023-01-24T08:42:07;15.48;;;8.75;;
23561;SDS011;11959;49.418;8.728;2023-01-24T08:44:33;14.02;;;8.07;;
23561;SDS011;11959;49.418;8.728;2023-01-24T08:46:59;15.80;;;8.68;;
23561;SDS011;11959;49.418;8.728;2023-01-24T08:49:24;16.75;;;8.77;;
23561;SDS011;11959;49.418;8.728;2023-01-24T08:51:50;15.38;;;8.82;;
23561;SDS011;11959;49.418;8.728;2023-01-24T08:54:23;13.80;;;8.88;;
23561;SDS011;11959;49.418;8.728;2023-01-24T08:56:50;17.15;;;8.57;;
23561;SDS011;11959;49.418;8.728;2023-01-24T08:59:15;15.95;;;10.27;;
23561;SDS011;11959;49.418;8.728;2023-01-24T09:01:41;17.27;;;9.23;;
23561;SDS011;11959;49.418;8.728;2023-01-24T09:04:07;18.35;;;8.80;;
23561;SDS011;11959;49.418;8.728;2023-01-24T09:06:33;15.18;;;9.38;;
23561;SDS011;11959;49.418;8.728;2023-01-24T09:08:59;15.07;;;8.65;;
23561;SDS011;11959;49.418;8.728;2023-01-24T09:11:25;13.82;;;7.78;;
23561;SDS011;11959;49.418;8.728;2023-01-24T09:13:50;16.02;;;8.40;;
23561;SDS011;11959;49.418;8.728;2023-01-24T09:16:16;14.75;;;8.32;;
23561;SDS011;11959;49.418;8.728;2023-01-24T09:18:42;15.35;;;8.70;;
23561;SDS011;11959;49.418;8.728;2023-01-24T09:21:08;17.50;;;9.07;;
23561;SDS011;11959;49.418;8.728;2023-01-24T09:23:33;14.93;;;8.48;;
23561;SDS011;11959;49.418;8.728;2023-01-24T09:25:59;14.73;;;8.88;;
23561;SDS011;11959;49.418;8.728;2023-01-24T09:28:25;13.57;;;8.93;;
23561;SDS011;11959;49.418;8.728;2023-01-24T09:30:50;17.02;;;8.98;;
23561;SDS011;11959;49.418;8.728;2023-01-24T09:33:17;16.58;;;8.60;;
23561;SDS011;11959;49.418;8.728;2023-01-24T09:35:56;13.38;;;7.95;;
23561;SDS011;11959;49.418;8.728;2023-01-24T09:38:24;16.15;;;8.85;;
23561;SDS011;11959;49.418;8.728;2023-01-24T09:43:40;17.77;;;8.77;;
23561;SDS011;11959;49.418;8.728;2023-01-24T09:46:18;14.93;;;8.50;;
23561;SDS011;11959;49.418;8.728;2023-01-24T09:48:52;15.02;;;9.00;;
23561;SDS011;11959;49.418;8.728;2023-01-24T09:51:25;13.80;;;8.80;;
23561;SDS011;11959;49.418;8.728;2023-01-24T09:53:55;13.98;;;8.27;;
23561;SDS011;11959;49.418;8.728;2023-01-24T09:56:25;16.10;;;9.93;;
23561;SDS011;11959;49.418;8.728;2023-01-24T10:01:36;15.68;;;8.88;;
23561;SDS011;11959;49.418;8.728;2023-01-24T10:04:04;16.48;;;9.63;;
23561;SDS011;11959;49.418;8.728;2023-01-24T10:06:35;13.38;;;7.57;;
23561;SDS011;11959;49.418;8.728;2023-01-24T10:24:35;11.95;;;7.65;;
23561;SDS011;11959;49.418;8.728;2023-01-24T10:27:46;14.00;;;7.72;;
23561;SDS011;11959;49.418;8.728;2023-01-24T10:29:57;13.02;;;7.38;;
23561;SDS011;11959;49.418;8.728;2023-01-24T10:32:32;11.35;;;7.10;;
23561;SDS011;11959;49.418;8.728;2023-01-24T10:35:01;13.25;;;7.82;;
23561;SDS011;11959;49.418;8.728;2023-01-24T10:37:38;16.00;;;7.47;;
23561;SDS011;11959;49.418;8.728;2023-01-24T10:40:12;12.52;;;7.15;;
23561;SDS011;11959;49.418;8.728;2023-01-24T10:42:39;12.52;;;7.10;;
23561;SDS011;11959;49.418;8.728;2023-01-24T10:45:21;12.30;;;7.13;;
23561;SDS011;11959;49.418;8.728;2023-01-24T10:48:02;9.90;;;6.75;;
23561;SDS011;11959;49.418;8.728;2023-01-24T10:50:42;12.10;;;7.18;;
23561;SDS011;11959;49.418;8.728;2023-01-24T10:53:13;12.80;;;7.60;;
23561;SDS011;11959;49.418;8.728;2023-01-24T10:56:04;12.77;;;7.25;;
23561;SDS011;11959;49.418;8.728;2023-01-24T10:59:16;9.27;;;6.47;;
23561;SDS011;11959;49.418;8.728;2023-01-24T11:01:32;12.35;;;6.85;;
23561;SDS011;11959;49.418;8.728;2023-01-24T11:04:12;10.95;;;6.47;;
23561;SDS011;11959;49.418;8.728;2023-01-24T11:06:41;13.48;;;7.30;;
23561;SDS011;11959;49.418;8.728;2023-01-24T11:09:15;11.32;;;6.95;;
23561;SDS011;11959;49.418;8.728;2023-01-24T11:14:14;11.40;;;6.80;;
23561;SDS011;11959;49.418;8.728;2023-01-24T11:16:50;11.60;;;6.80;;
23561;SDS011;11959;49.418;8.728;2023-01-24T11:19:25;12.35;;;7.07;;
23561;SDS011;11959;49.418;8.728;2023-01-24T11:21:55;12.10;;;7.00;;
23561;SDS011;11959;49.418;8.728;2023-01-24T11:24:22;10.77;;;6.90;;
23561;SDS011;11959;49.418;8.728;2023-01-24T11:27:02;12.05;;;7.05;;
23561;SDS011;11959;49.418;8.728;2023-01-24T11:33:03;11.60;;;7.00;;
23561;SDS011;11959;49.418;8.728;2023-01-24T11:35:47;11.13;;;7.10;;
23561;SDS011;11959;49.418;8.728;2023-01-24T11:38:23;10.57;;;6.57;;
23561;SDS011;11959;49.418;8.728;2023-01-24T11:41:26;11.65;;;6.75;;
23561;SDS011;11959;49.418;8.728;2023-01-24T11:44:05;11.55;;;7.00;;
23561;SDS011;11959;49.418;8.728;2023-01-24T11:47:08;10.55;;;6.82;;
23561;SDS011;11959;49.418;8.728;2023-01-24T11:53:07;9.65;;;6.63;;
23561;SDS011;11959;49.418;8.728;2023-01-24T11:56:03;10.38;;;6.47;;
23561;SDS011;11959;49.418;8.728;2023-01-24T12:01:10;12.45;;;6.88;;
23561;SDS011;11959;49.418;8.728;2023-01-24T12:04:03;12.88;;;7.20;;
23561;SDS011;11959;49.418;8.728;2023-01-24T12:09:49;11.52;;;6.80;;
23561;SDS011;11959;49.418;8.728;2023-01-24T12:12:29;11.07;;;7.30;;
23561;SDS011;11959;49.418;8.728;2023-01-24T12:15:02;12.18;;;6.95;;
23561;SDS011;11959;49.418;8.728;2023-01-24T12:26:26;12.23;;;7.47;;
23561;SDS011;11959;49.418;8.728;2023-01-24T12:31:51;13.88;;;7.43;;
23561;SDS011;11959;49.418;8.728;2023-01-24T12:36:48;14.50;;;7.68;;
23561;SDS011;11959;49.418;8.728;2023-01-24T12:39:22;13.18;;;7.47;;
23561;SDS011;11959;49.418;8.728;2023-01-24T12:41:56;12.27;;;7.60;;
23561;SDS011;11959;49.418;8.728;2023-01-24T12:44:50;12.93;;;7.53;;
23561;SDS011;11959;49.418;8.728;2023-01-24T12:53:05;11.32;;;6.68;;
23561;SDS011;11959;49.418;8.728;2023-01-24T12:55:59;12.45;;;7.15;;
23561;SDS011;11959;49.418;8.728;2023-01-24T13:11:44;12.82;;;7.13;;
23561;SDS011;11959;49.418;8.728;2023-01-24T13:14:16;12.95;;;7.30;;
23561;SDS011;11959;49.418;8.728;2023-01-24T13:22:46;14.43;;;7.47;;
23561;SDS011;11959;49.418;8.728;2023-01-24T13:27:54;13.60;;;7.20;;
23561;SDS011;11959;49.418;8.728;2023-01-24T13:30:35;14.73;;;7.25;;
23561;SDS011;11959;49.418;8.728;2023-01-24T13:33:03;11.82;;;6.68;;
23561;SDS011;11959;49.418;8.728;2023-01-24T13:35:30;11.95;;;7.43;;
23561;SDS011;11959;49.418;8.728;2023-01-24T13:38:16;13.93;;;6.82;;
23561;SDS011;11959;49.418;8.728;2023-01-24T13:41:02;13.98;;;7.07;;
23561;SDS011;11959;49.418;8.728;2023-01-24T13:49:17;12.80;;;7.03;;
23561;SDS011;11959;49.418;8.728;2023-01-24T13:52:34;11.93;;;7.00;;
23561;SDS011;11959;49.418;8.728;2023-01-24T13:54:56;12.00;;;7.07;;
23561;SDS011;11959;49.418;8.728;2023-01-24T13:57:25;11.63;;;6.80;;
23561;SDS011;11959;49.418;8.728;2023-01-24T14:05:40;12.13;;;6.35;;
23561;SDS011;11959;49.418;8.728;2023-01-24T14:13:04;11.65;;;7.28;;
23561;SDS011;11959;49.418;8.728;2023-01-24T14:15:37;14.20;;;7.63;;
23561;SDS011;11959;49.418;8.728;2023-01-24T14:21:28;9.63;;;5.45;;
23561;SDS011;11959;49.418;8.728;2023-01-24T14:24:00;14.70;;;7.50;;
23561;SDS011;11959;49.418;8.728;2023-01-24T14:26:38;10.70;;;6.70;;
23561;SDS011;11959;49.418;8.728;2023-01-24T14:29:03;12.57;;;6.93;;
23561;SDS011;11959;49.418;8.728;2023-01-24T14:31:38;11.48;;;6.78;;
23561;SDS011;11959;49.418;8.728;2023-01-24T14:36:47;11.00;;;6.65;;
23561;SDS011;11959;49.418;8.728;2023-01-24T14:39:23;11.43;;;6.97;;
23561;SDS011;11959;49.418;8.728;2023-01-24T14:44:19;11.43;;;6.43;;
23561;SDS011;11959;49.418;8.728;2023-01-24T14:46:54;13.18;;;7.10;;
23561;SDS011;11959;49.418;8.728;2023-01-24T14:49:27;11.10;;;7.32;;
23561;SDS011;11959;49.418;8.728;2023-01-24T14:51:52;12.85;;;7.13;;
23561;SDS011;11959;49.418;8.728;2023-01-24T14:54:18;9.70;;;6.10;;
23561;SDS011;11959;49.418;8.728;2023-01-24T14:56:46;12.93;;;7.07;;
23561;SDS011;11959;49.418;8.728;2023-01-24T14:59:12;13.00;;;7.53;;
23561;SDS011;11959;49.418;8.728;2023-01-24T15:01:39;11.90;;;7.10;;
23561;SDS011;11959;49.418;8.728;2023-01-24T15:04:05;12.02;;;6.97;;
23561;SDS011;11959;49.418;8.728;2023-01-24T15:06:44;13.40;;;8.18;;
23561;SDS011;11959;49.418;8.728;2023-01-24T15:09:12;12.02;;;6.80;;
23561;SDS011;11959;49.418;8.728;2023-01-24T15:11:41;9.43;;;6.00;;
23561;SDS011;11959;49.418;8.728;2023-01-24T15:14:15;12.73;;;6.55;;
23561;SDS011;11959;49.418;8.728;2023-01-24T15:16:53;10.13;;;6.55;;
23561;SDS011;11959;49.418;8.728;2023-01-24T15:19:20;9.93;;;6.50;;
23561;SDS011;11959;49.418;8.728;2023-01-24T15:21:49;9.77;;;5.97;;
23561;SDS011;11959;49.418;8.728;2023-01-24T15:24:25;12.77;;;7.13;;
23561;SDS011;11959;49.418;8.728;2023-01-24T15:26:53;11.02;;;6.45;;
23561;SDS011;11959;49.418;8.728;2023-01-24T15:34:51;11.45;;;6.65;;
23561;SDS011;11959;49.418;8.728;2023-01-24T15:37:16;11.77;;;6.55;;
23561;SDS011;11959;49.418;8.728;2023-01-24T15:39:42;10.00;;;6.60;;
23561;SDS011;11959;49.418;8.728;2023-01-24T15:42:15;11.52;;;7.13;;
23561;SDS011;11959;49.418;8.728;2023-01-24T15:45:01;11.80;;;6.53;;
23561;SDS011;11959;49.418;8.728;2023-01-24T15:47:27;11.25;;;7.28;;
23561;SDS011;11959;49.418;8.728;2023-01-24T15:50:17;11.15;;;6.97;;
23561;SDS011;11959;49.418;8.728;2023-01-24T15:53:24;11.15;;;7.00;;
23561;SDS011;11959;49.418;8.728;2023-01-24T15:55:53;11.82;;;6.60;;
23561;SDS011;11959;49.418;8.728;2023-01-24T15:58:20;13.35;;;7.72;;
23561;SDS011;11959;49.418;8.728;2023-01-24T16:00:49;13.00;;;7.50;;
23561;SDS011;11959;49.418;8.728;2023-01-24T16:03:17;13.63;;;7.38;;
23561;SDS011;11959;49.418;8.728;2023-01-24T16:05:43;10.52;;;6.80;;
23561;SDS011;11959;49.418;8.728;2023-01-24T16:08:08;11.50;;;7.07;;
23561;SDS011;11959;49.418;8.728;2023-01-24T16:10:34;11.02;;;7.03;;
23561;SDS011;11959;49.418;8.728;2023-01-24T16:13:00;13.27;;;7.22;;
23561;SDS011;11959;49.418;8.728;2023-01-24T16:15:27;12.70;;;6.90;;
23561;SDS011;11959;49.418;8.728;2023-01-24T16:17:52;13.57;;;7.45;;
23561;SDS011;11959;49.418;8.728;2023-01-24T16:20:19;10.25;;;7.55;;
23561;SDS011;11959;49.418;8.728;2023-01-24T16:22:46;11.65;;;6.63;;
23561;SDS011;11959;49.418;8.728;2023-01-24T16:25:12;11.60;;;7.28;;
23561;SDS011;11959;49.418;8.728;2023-01-24T16:27:39;13.57;;;6.97;;
23561;SDS011;11959;49.418;8.728;2023-01-24T16:30:09;11.57;;;7.28;;
23561;SDS011;11959;49.418;8.728;2023-01-24T16:32:44;12.15;;;6.80;;
23561;SDS011;11959;49.418;8.728;2023-01-24T16:35:10;14.70;;;8.20;;
23561;SDS011;11959;49.418;8.728;2023-01-24T16:37:36;10.57;;;7.15;;
23561;SDS011;11959;49.418;8.728;2023-01-24T16:40:01;11.30;;;7.28;;
23561;SDS011;11959;49.418;8.728;2023-01-24T16:42:27;9.80;;;6.32;;
23561;SDS011;11959;49.418;8.728;2023-01-24T16:44:59;12.20;;;7.05;;
23561;SDS011;11959;49.418;8.728;2023-01-24T16:47:26;13.60;;;7.35;;
23561;SDS011;11959;49.418;8.728;2023-01-24T16:49:56;10.88;;;6.85;;
23561;SDS011;11959;49.418;8.728;2023-01-24T16:52:23;11.32;;;6.90;;
23561;SDS011;11959;49.418;8.728;2023-01-24T16:54:50;10.93;;;7.10;;
23561;SDS011;11959;49.418;8.728;2023-01-24T16:57:16;9.73;;;6.45;;